createdAt,value
2023-04-28T00:01:17.973Z,100562.38
2023-04-28T00:06:21.508Z,100560.42
2023-04-28T00:11:24.286Z,100560.66
2023-04-28T00:16:27.130Z,100557.94
2023-04-28T00:21:30.202Z,100552.58
2023-04-28T00:26:33.616Z,100551.85
2023-04-28T00:31:36.537Z,100554.73
2023-04-28T00:36:39.575Z,100556.04
2023-04-28T00:41:42.329Z,100560.27
2023-04-28T00:46:45.229Z,100564.65
2023-04-28T00:51:48.133Z,100565.67
2023-04-28T00:56:51.883Z,100561.41
2023-04-28T01:01:55.164Z,100560.09
2023-04-28T01:06:59.274Z,100564.42
2023-04-28T01:12:02.051Z,100569.73
2023-04-28T01:17:05.117Z,100571.11
2023-04-28T01:22:09.349Z,100572.86
2023-04-28T01:27:12.561Z,100569.71
2023-04-28T01:32:15.330Z,100573.44
2023-04-28T01:37:18.083Z,100574.02
2023-04-28T01:42:21.107Z,100576.19
2023-04-28T01:47:23.911Z,100573.52
2023-04-28T01:52:28.101Z,100574.68
2023-04-28T01:57:30.947Z,100575.85
2023-04-28T02:02:34.696Z,100577.77
2023-04-28T02:07:37.736Z,100572.13
2023-04-28T02:12:42.754Z,100570.39
2023-04-28T02:17:45.741Z,100572.25
2023-04-28T02:22:48.651Z,100576.17
2023-04-28T02:27:51.368Z,100575.49
2023-04-28T02:32:54.430Z,100574.10
2023-04-28T02:37:57.330Z,100575.73
2023-04-28T02:43:00.215Z,100574.44
2023-04-28T02:48:04.800Z,100579.52
2023-04-28T02:53:07.661Z,100588.37
2023-04-28T02:58:10.568Z,100587.42
2023-04-28T03:03:14.032Z,100587.11
2023-04-28T03:08:17.075Z,100588.02
2023-04-28T03:13:19.993Z,100584.36
2023-04-28T03:18:22.714Z,100584.15
2023-04-28T03:23:25.573Z,100583.52
2023-04-28T03:28:28.278Z,100586.98
2023-04-28T03:33:31.705Z,100588.44
2023-04-28T03:38:34.516Z,100588.98
2023-04-28T03:43:37.552Z,100593.30
2023-04-28T03:48:40.529Z,100601.39
2023-04-28T03:53:43.340Z,100604.85
2023-04-28T03:58:46.348Z,100599.59
2023-04-28T04:03:50.149Z,100606.27
2023-04-28T04:08:53.165Z,100610.09
2023-04-28T04:13:55.967Z,100617.15
2023-04-28T04:18:58.732Z,100617.73
2023-04-28T04:24:01.584Z,100622.58
2023-04-28T04:29:04.377Z,100620.61
2023-04-28T04:34:07.979Z,100620.09
2023-04-28T04:39:10.691Z,100618.88
2023-04-28T04:44:14.236Z,100622.84
2023-04-28T04:49:18.057Z,100624.02
2023-04-28T04:54:20.841Z,100622.36
2023-04-28T04:59:23.640Z,100625.15
2023-04-28T05:04:26.815Z,100628.79
2023-04-28T05:09:30.881Z,100630.32
2023-04-28T05:14:33.787Z,100632.64
2023-04-28T05:19:36.895Z,100636.61
2023-04-28T05:24:39.641Z,100638.90
2023-04-28T05:29:42.446Z,100637.52
2023-04-28T05:34:45.713Z,100636.15
2023-04-28T05:39:48.620Z,100637.92
2023-04-28T05:44:51.355Z,100635.55
2023-04-28T05:49:54.149Z,100641.58
2023-04-28T05:54:56.890Z,100642.72
2023-04-28T05:59:59.606Z,100642.89
2023-04-28T06:05:02.736Z,100643.34
2023-04-28T06:10:07.266Z,100642.18
2023-04-28T06:15:11.102Z,100645.39
2023-04-28T06:20:14.306Z,100654.61
2023-04-28T06:25:17.726Z,100653.23
2023-04-28T06:30:23.326Z,100651.13
2023-04-28T06:35:26.715Z,100648.60
2023-04-28T06:40:29.608Z,100651.48
2023-04-28T06:45:32.482Z,100649.41
2023-04-28T06:50:35.217Z,100647.90
2023-04-28T06:55:38.112Z,100651.36
2023-04-28T07:00:41.022Z,100652.01
2023-04-28T07:05:43.791Z,100651.83
2023-04-28T07:10:47.134Z,100654.77
2023-04-28T07:15:49.966Z,100651.30
2023-04-28T07:20:52.773Z,100645.25
2023-04-28T07:25:55.693Z,100644.48
2023-04-28T07:30:58.854Z,100638.55
2023-04-28T07:36:02.199Z,100639.29
2023-04-28T07:41:07.701Z,100636.71
2023-04-28T07:46:13.323Z,100633.86
2023-04-28T07:51:16.638Z,100632.77
2023-04-28T07:56:19.482Z,100637.35
2023-04-28T08:01:22.222Z,100627.55
2023-04-28T08:06:25.561Z,100627.56
2023-04-28T08:11:28.955Z,100624.02
2023-04-28T08:16:32.095Z,100619.95
2023-04-28T08:21:35.058Z,100624.98
2023-04-28T08:26:38.604Z,100620.98
2023-04-28T08:31:41.893Z,100619.07
2023-04-28T08:36:44.903Z,100613.55
2023-04-28T08:41:47.935Z,100609.48
2023-04-28T08:46:56.606Z,100604.23
2023-04-28T08:52:00.641Z,100607.61
2023-04-28T08:57:04.660Z,100599.58
2023-04-28T09:02:09.207Z,100598.05
2023-04-28T09:07:12.908Z,100595.04
2023-04-28T09:12:16.560Z,100594.71
2023-04-28T09:17:19.536Z,100600.29
2023-04-28T09:22:28.742Z,100592.39
2023-04-28T09:27:31.501Z,100589.59
2023-04-28T09:32:34.410Z,100587.48
2023-04-28T09:37:37.807Z,100589.88
2023-04-28T09:42:48.028Z,100586.95
2023-04-28T09:47:51.204Z,100587.41
2023-04-28T09:52:58.191Z,100579.29
2023-04-28T09:58:06.192Z,100570.68
2023-04-28T10:03:10.759Z,100563.52
2023-04-28T10:08:13.978Z,100558.58
2023-04-28T10:13:18.106Z,100557.71
2023-04-28T10:18:23.430Z,100553.80
2023-04-28T10:23:55.728Z,100551.56
2023-04-28T10:28:58.565Z,100542.69
2023-04-28T10:34:22.293Z,100535.70
2023-04-28T10:39:25.492Z,100539.92
2023-04-28T10:44:28.291Z,100537.47
2023-04-28T10:49:58.938Z,100523.52
2023-04-28T10:55:42.862Z,100524.35
2023-04-28T11:00:51.640Z,100524.52
2023-04-28T11:06:20.819Z,100528.99
2023-04-28T11:11:26.035Z,100528.02
2023-04-28T11:16:28.894Z,100512.11
2023-04-28T11:21:32.980Z,100507.68
2023-04-28T11:26:38.366Z,100504.58
2023-04-28T11:31:49.341Z,100510.10
2023-04-28T11:36:54.131Z,100510.36
2023-04-28T11:41:59.605Z,100504.00
2023-04-28T11:47:04.048Z,100504.66
2023-04-28T11:52:08.847Z,100506.83
2023-04-28T11:57:19.437Z,100501.12
2023-04-28T12:02:31.999Z,100507.13
2023-04-28T12:07:45.691Z,100502.83
2023-04-28T12:12:52.344Z,100501.56
2023-04-28T12:17:56.307Z,100503.55
2023-04-28T12:22:59.268Z,100490.94
2023-04-28T12:28:03.206Z,100479.20
2023-04-28T12:33:06.264Z,100477.05
2023-04-28T12:38:12.072Z,100466.23
2023-04-28T12:43:15.520Z,100457.77
2023-04-28T12:48:18.813Z,100452.33
2023-04-28T12:53:21.646Z,100446.70
2023-04-28T12:58:24.535Z,100443.23
2023-04-28T13:03:28.695Z,100438.45
2023-04-28T13:08:34.118Z,100434.56
2023-04-28T13:13:37.677Z,100422.86
2023-04-28T13:18:40.545Z,100417.45
2023-04-28T13:23:43.359Z,100408.64
2023-04-28T13:28:49.315Z,100409.67
2023-04-28T13:33:52.347Z,100408.49
2023-04-28T13:38:55.885Z,100412.52
2023-04-28T13:43:58.747Z,100405.73
2023-04-28T13:49:01.858Z,100394.61
2023-04-28T13:54:08.905Z,100384.02
2023-04-28T13:59:13.696Z,100383.27
2023-04-28T14:04:16.916Z,100384.61
2023-04-28T14:09:19.953Z,100373.70
2023-04-28T14:14:22.925Z,100365.70
2023-04-28T14:19:27.163Z,100363.70
2023-04-28T14:24:29.932Z,100361.16
2023-04-28T14:29:32.702Z,100360.42
2023-04-28T14:34:35.495Z,100360.79
2023-04-28T14:39:39.994Z,100356.88
2023-04-28T14:44:43.205Z,100353.33
2023-04-28T14:49:47.897Z,100354.39
2023-04-28T14:54:51.588Z,100348.42
2023-04-28T14:59:54.907Z,100336.21
2023-04-28T15:04:58.403Z,100335.39
2023-04-28T15:10:01.409Z,100335.48
2023-04-28T15:15:04.492Z,100329.11
2023-04-28T15:20:08.238Z,100321.49
2023-04-28T15:25:11.569Z,100325.17
2023-04-28T15:30:14.570Z,100313.86
2023-04-28T15:35:17.489Z,100304.91
2023-04-28T15:40:21.973Z,100306.14
2023-04-28T15:45:24.916Z,100303.73
2023-04-28T15:50:27.823Z,100298.99
2023-04-28T15:55:30.933Z,100299.02
2023-04-28T16:00:34.373Z,100297.73
2023-04-28T16:05:38.606Z,100297.79
2023-04-28T16:10:42.621Z,100292.45
2023-04-28T16:15:46.297Z,100288.57
2023-04-28T16:20:49.359Z,100283.80
2023-04-28T16:25:54.130Z,100281.24
2023-04-28T16:30:57.194Z,100277.55
2023-04-28T16:36:00.116Z,100278.39
2023-04-28T16:41:02.890Z,100279.83
2023-04-28T16:46:05.927Z,100276.02
2023-04-28T16:51:11.890Z,100271.31
2023-04-28T16:56:14.701Z,100270.66
2023-04-28T17:01:17.745Z,100268.98
2023-04-28T17:06:21.010Z,100260.91
2023-04-28T17:11:23.741Z,100260.16
2023-04-28T17:16:30.533Z,100264.82
2023-04-28T17:21:33.872Z,100261.33
2023-04-28T17:26:37.498Z,100257.92
2023-04-28T17:31:40.385Z,100253.72
2023-04-28T17:36:43.464Z,100248.14
2023-04-28T17:41:47.008Z,100245.50
2023-04-28T17:46:49.952Z,100243.48
2023-04-28T17:51:52.880Z,100247.91
2023-04-28T17:56:55.995Z,100247.98
2023-04-28T18:01:59.147Z,100245.11
2023-04-28T18:07:02.745Z,100248.02
2023-04-28T18:12:07.035Z,100252.55
2023-04-28T18:17:10.184Z,100246.81
2023-04-28T18:22:12.905Z,100246.27
2023-04-28T18:27:15.806Z,100245.53
2023-04-28T18:32:18.669Z,100243.70
2023-04-28T18:37:21.473Z,100247.87
2023-04-28T18:42:27.413Z,100248.30
2023-04-28T18:47:31.106Z,100251.05
2023-04-28T18:52:34.253Z,100254.16
2023-04-28T18:57:37.013Z,100255.98
2023-04-28T19:02:40.342Z,100250.94
2023-04-28T19:07:43.167Z,100245.77
2023-04-28T19:12:46.050Z,100244.56
2023-04-28T19:17:48.954Z,100240.03
2023-04-28T19:22:51.923Z,100243.03
2023-04-28T19:27:54.817Z,100239.74
2023-04-28T19:32:57.685Z,100235.20
2023-04-28T19:38:00.522Z,100234.04
2023-04-28T19:43:04.193Z,100232.31
2023-04-28T19:48:07.012Z,100232.86
2023-04-28T19:53:10.012Z,100232.51
2023-04-28T19:58:14.117Z,100235.44
2023-04-28T20:03:17.446Z,100239.92
2023-04-28T20:08:20.617Z,100239.95
2023-04-28T20:13:23.525Z,100243.38
2023-04-28T20:18:26.726Z,100244.81
2023-04-28T20:23:29.609Z,100246.38
2023-04-28T20:28:32.427Z,100247.70
2023-04-28T20:33:35.356Z,100248.20
2023-04-28T20:38:38.448Z,100242.67
2023-04-28T20:43:42.237Z,100242.86
2023-04-28T20:48:45.038Z,100235.50
2023-04-28T20:53:47.968Z,100233.92
2023-04-28T20:58:50.833Z,100230.08
2023-04-28T21:03:53.869Z,100228.80
2023-04-28T21:08:56.789Z,100227.76
2023-04-28T21:13:59.532Z,100222.30
2023-04-28T21:19:02.496Z,100222.67
2023-04-28T21:24:06.838Z,100218.27
2023-04-28T21:29:10.365Z,100212.79
2023-04-28T21:34:13.149Z,100215.80
2023-04-28T21:39:15.818Z,100214.01
2023-04-28T21:44:19.583Z,100209.94
2023-04-28T21:49:22.376Z,100208.30
2023-04-28T21:54:25.180Z,100208.05
2023-04-28T21:59:28.905Z,100205.60
2023-04-28T22:04:32.130Z,100202.29
2023-04-28T22:09:35.218Z,100197.37
2023-04-28T22:14:41.326Z,100199.13
2023-04-28T22:19:44.613Z,100190.33
2023-04-28T22:24:47.419Z,100187.70
2023-04-28T22:29:51.242Z,100184.55
2023-04-28T22:34:54.711Z,100179.50
2023-04-28T22:39:57.536Z,100178.20
2023-04-28T22:45:03.188Z,100175.73
2023-04-28T22:50:10.921Z,100172.05
2023-04-28T22:55:14.544Z,100173.33
2023-04-28T23:00:17.493Z,100172.51
2023-04-28T23:05:20.494Z,100166.02
2023-04-28T23:10:23.265Z,100165.23
2023-04-28T23:15:26.156Z,100161.20
2023-04-28T23:20:28.931Z,100158.89
2023-04-28T23:25:32.508Z,100154.12
2023-04-28T23:30:36.124Z,100147.56
2023-04-28T23:35:38.931Z,100140.14
2023-04-28T23:40:41.992Z,100135.27
2023-04-28T23:45:44.780Z,100132.68
2023-04-28T23:50:48.334Z,100126.10
2023-04-28T23:55:51.169Z,100121.70
